createdAt,value
2022-07-27T00:00:57.606Z,1012.90
2022-07-27T00:01:57.496Z,1012.90
2022-07-27T00:02:57.493Z,1012.92
2022-07-27T00:03:57.492Z,1012.87
2022-07-27T00:04:57.462Z,1012.89
2022-07-27T00:05:57.456Z,1012.89
2022-07-27T00:06:57.439Z,1012.83
2022-07-27T00:07:57.428Z,1012.87
2022-07-27T00:08:57.408Z,1012.89
2022-07-27T00:09:57.404Z,1012.90
2022-07-27T00:10:57.411Z,1012.87
2022-07-27T00:11:57.377Z,1012.90
2022-07-27T00:12:57.374Z,1012.94
2022-07-27T00:13:57.361Z,1012.91
2022-07-27T00:14:57.351Z,1012.94
2022-07-27T00:15:57.428Z,1012.95
2022-07-27T00:16:57.326Z,1012.92
2022-07-27T00:17:57.317Z,1012.90
2022-07-27T00:18:57.298Z,1012.90
2022-07-27T00:19:57.296Z,1012.89
2022-07-27T00:20:57.303Z,1012.91
2022-07-27T00:21:57.264Z,1012.92
2022-07-27T00:22:57.260Z,1012.95
2022-07-27T00:23:57.248Z,1012.94
2022-07-27T00:24:57.231Z,1012.93
2022-07-27T00:25:57.232Z,1012.91
2022-07-27T00:26:57.216Z,1012.92
2022-07-27T00:27:57.204Z,1012.92
2022-07-27T00:28:57.193Z,1012.89
2022-07-27T00:29:57.173Z,1012.93
2022-07-27T00:30:57.337Z,1012.92
2022-07-27T00:31:57.229Z,1012.92
2022-07-27T00:32:57.159Z,1012.96
2022-07-27T00:33:57.136Z,1012.92
2022-07-27T00:34:57.118Z,1012.97
2022-07-27T00:35:57.150Z,1012.97
2022-07-27T00:36:57.102Z,1012.97
2022-07-27T00:37:57.091Z,1012.94
2022-07-27T00:38:57.071Z,1012.91
2022-07-27T00:39:57.067Z,1012.96
2022-07-27T00:40:57.049Z,1012.94
2022-07-27T00:41:57.057Z,1012.94
2022-07-27T00:42:57.031Z,1012.93
2022-07-27T00:43:57.022Z,1012.96
2022-07-27T00:44:57.001Z,1012.95
2022-07-27T00:45:56.988Z,1012.94
2022-07-27T00:46:57.081Z,1012.96
2022-07-27T00:47:56.973Z,1012.94
2022-07-27T00:48:57.022Z,1012.96
2022-07-27T00:49:56.950Z,1012.94
2022-07-27T00:50:56.940Z,1012.98
2022-07-27T00:51:56.940Z,1012.94
2022-07-27T00:52:56.908Z,1012.89
2022-07-27T00:53:56.898Z,1012.93
2022-07-27T00:54:56.893Z,1012.95
2022-07-27T00:55:56.885Z,1012.92
2022-07-27T00:56:56.887Z,1012.93
2022-07-27T00:57:59.556Z,1012.94
2022-07-27T00:58:56.846Z,1012.92
2022-07-27T00:59:56.828Z,1012.94
2022-07-27T01:00:56.822Z,1012.93
2022-07-27T01:01:56.909Z,1012.93
2022-07-27T01:02:57.587Z,1012.93
2022-07-27T01:03:56.787Z,1012.90
2022-07-27T01:04:56.876Z,1012.94
2022-07-27T01:05:56.767Z,1012.92
2022-07-27T01:06:56.769Z,1012.97
2022-07-27T01:07:56.734Z,1012.96
2022-07-27T01:08:56.723Z,1012.96
2022-07-27T01:09:56.726Z,1012.92
2022-07-27T01:10:56.709Z,1012.93
2022-07-27T01:11:56.707Z,1012.90
2022-07-27T01:12:56.686Z,1012.96
2022-07-27T01:13:56.672Z,1012.92
2022-07-27T01:14:56.656Z,1012.90
2022-07-27T01:15:56.698Z,1012.89
2022-07-27T01:16:56.646Z,1012.86
2022-07-27T01:17:56.625Z,1012.91
2022-07-27T01:18:56.612Z,1012.88
2022-07-27T01:23:28.469Z,1012.92
2022-07-27T01:24:26.009Z,1012.95
2022-07-27T01:25:25.990Z,1012.95
2022-07-27T01:26:25.987Z,1012.93
2022-07-27T01:27:25.979Z,1012.91
2022-07-27T01:28:25.964Z,1012.92
2022-07-27T01:29:25.948Z,1012.92
2022-07-27T01:30:25.943Z,1012.96
2022-07-27T01:31:25.970Z,1012.96
2022-07-27T01:32:25.933Z,1012.96
2022-07-27T01:33:26.184Z,1012.94
2022-07-27T01:34:25.902Z,1012.93
2022-07-27T01:35:25.888Z,1012.94
2022-07-27T01:36:25.870Z,1012.93
2022-07-27T01:37:25.885Z,1012.89
2022-07-27T01:38:25.851Z,1012.89
2022-07-27T01:39:25.833Z,1012.91
2022-07-27T01:40:25.830Z,1012.92
2022-07-27T01:41:25.817Z,1012.93
2022-07-27T01:42:25.816Z,1012.91
2022-07-27T01:43:25.790Z,1012.87
2022-07-27T01:44:25.784Z,1012.87
2022-07-27T01:45:25.774Z,1012.87
2022-07-27T01:46:25.816Z,1012.89
2022-07-27T01:47:25.761Z,1012.85
2022-07-27T01:48:25.739Z,1012.84
2022-07-27T01:49:25.822Z,1012.85
2022-07-27T01:50:25.722Z,1012.86
2022-07-27T01:51:25.695Z,1012.85
2022-07-27T01:52:25.712Z,1012.84
2022-07-27T01:53:25.682Z,1012.85
2022-07-27T01:54:25.662Z,1012.82
2022-07-27T01:55:25.651Z,1012.81
2022-07-27T01:56:25.637Z,1012.80
2022-07-27T01:57:25.642Z,1012.80
2022-07-27T01:58:25.622Z,1012.79
2022-07-27T01:59:25.604Z,1012.79
2022-07-27T02:00:25.594Z,1012.83
2022-07-27T02:01:25.625Z,1012.87
2022-07-27T02:02:25.580Z,1012.91
2022-07-27T02:03:25.562Z,1012.88
2022-07-27T02:04:25.549Z,1012.93
2022-07-27T02:05:25.651Z,1012.94
2022-07-27T02:06:25.533Z,1012.93
2022-07-27T02:07:25.532Z,1012.95
2022-07-27T02:08:25.507Z,1013.00
2022-07-27T02:09:25.495Z,1012.94
2022-07-27T02:10:25.486Z,1012.97
2022-07-27T02:11:25.477Z,1012.94
2022-07-27T02:12:25.483Z,1012.92
2022-07-27T02:13:25.447Z,1012.92
2022-07-27T02:14:25.438Z,1012.90
2022-07-27T02:15:25.431Z,1012.88
2022-07-27T02:16:25.449Z,1012.90
2022-07-27T02:17:25.418Z,1012.92
2022-07-27T02:18:35.898Z,1012.91
2022-07-27T02:19:26.386Z,1012.90
2022-07-27T02:20:25.364Z,1012.91
2022-07-27T02:21:25.364Z,1012.90
2022-07-27T02:22:25.363Z,1012.88
2022-07-27T02:23:25.327Z,1012.90
2022-07-27T02:24:25.316Z,1012.87
2022-07-27T02:25:25.314Z,1012.89
2022-07-27T02:26:25.297Z,1012.88
2022-07-27T02:27:25.296Z,1012.85
2022-07-27T02:28:25.276Z,1012.84
2022-07-27T02:29:25.264Z,1012.86
2022-07-27T02:30:25.254Z,1012.88
2022-07-27T02:31:25.243Z,1012.87
2022-07-27T02:32:25.276Z,1012.93
2022-07-27T02:33:25.221Z,1012.91
2022-07-27T02:34:25.200Z,1012.93
2022-07-27T02:35:25.189Z,1012.94
2022-07-27T02:36:25.185Z,1012.94
2022-07-27T02:37:25.192Z,1012.94
2022-07-27T02:38:25.161Z,1012.95
2022-07-27T02:39:25.155Z,1012.95
2022-07-27T02:40:25.142Z,1012.93
2022-07-27T02:41:25.169Z,1012.95
2022-07-27T02:42:25.133Z,1012.96
2022-07-27T02:43:25.097Z,1012.98
2022-07-27T02:44:25.095Z,1012.95
2022-07-27T02:45:25.085Z,1012.92
2022-07-27T02:46:25.093Z,1012.92
2022-07-27T02:47:25.067Z,1012.92
2022-07-27T02:48:25.039Z,1012.86
2022-07-27T02:49:25.058Z,1012.92
2022-07-27T02:50:25.021Z,1012.90
2022-07-27T02:51:25.019Z,1012.92
2022-07-27T02:52:25.016Z,1012.95
2022-07-27T02:53:24.991Z,1012.95
2022-07-27T02:54:24.981Z,1013.00
2022-07-27T02:55:24.967Z,1013.01
2022-07-27T02:56:26.945Z,1013.02
2022-07-27T02:57:24.965Z,1013.05
2022-07-27T02:58:24.936Z,1013.08
2022-07-27T02:59:24.920Z,1013.08
2022-07-27T03:00:24.920Z,1013.09
2022-07-27T03:01:25.000Z,1013.07
2022-07-27T03:02:24.911Z,1013.05
2022-07-27T03:03:24.881Z,1013.03
2022-07-27T03:04:25.958Z,1013.04
2022-07-27T03:05:24.854Z,1013.01
2022-07-27T03:06:24.860Z,1013.04
2022-07-27T03:07:24.841Z,1013.01
2022-07-27T03:08:24.816Z,1013.04
2022-07-27T03:09:32.849Z,1013.08
2022-07-27T03:10:25.843Z,1013.12
2022-07-27T03:11:24.790Z,1013.08
2022-07-27T03:12:24.808Z,1013.10
2022-07-27T03:13:24.764Z,1013.10
2022-07-27T03:14:24.760Z,1013.11
2022-07-27T03:15:24.745Z,1013.11
2022-07-27T03:16:24.831Z,1013.09
2022-07-27T03:17:24.723Z,1013.09
2022-07-27T03:18:24.727Z,1013.09
2022-07-27T03:19:29.979Z,1013.12
2022-07-27T03:20:25.684Z,1013.09
2022-07-27T03:21:24.670Z,1013.14
2022-07-27T03:22:24.671Z,1013.13
2022-07-27T03:23:24.673Z,1013.09
2022-07-27T03:24:24.651Z,1013.09
2022-07-27T03:25:24.635Z,1013.07
2022-07-27T03:26:24.624Z,1013.06
2022-07-27T03:27:24.613Z,1013.05
2022-07-27T03:28:24.617Z,1013.05
2022-07-27T03:29:24.592Z,1013.04
2022-07-27T03:30:24.572Z,1013.05
2022-07-27T03:31:24.647Z,1013.07
2022-07-27T03:32:24.557Z,1013.08
2022-07-27T03:33:24.561Z,1013.02
2022-07-27T03:34:24.534Z,1013.04
2022-07-27T03:35:24.521Z,1013.08
2022-07-27T03:36:24.519Z,1013.08
2022-07-27T03:37:24.500Z,1013.05
2022-07-27T03:39:37.471Z,1013.07
2022-07-27T03:40:34.264Z,1013.07
2022-07-27T03:41:34.264Z,1013.07
2022-07-27T03:42:34.255Z,1013.10
2022-07-27T03:43:34.272Z,1013.09
2022-07-27T03:44:34.227Z,1013.07
2022-07-27T03:45:34.293Z,1013.07
2022-07-27T03:46:34.215Z,1013.09
2022-07-27T03:47:34.208Z,1013.09
2022-07-27T03:48:34.251Z,1013.12
2022-07-27T03:49:34.321Z,1013.12
2022-07-27T03:50:34.165Z,1013.12
2022-07-27T03:51:34.145Z,1013.12
2022-07-27T03:52:34.154Z,1013.13
2022-07-27T03:53:34.130Z,1013.13
2022-07-27T03:54:34.118Z,1013.13
2022-07-27T03:55:34.100Z,1013.12
2022-07-27T03:56:34.090Z,1013.14
2022-07-27T03:57:34.078Z,1013.13
2022-07-27T03:58:34.092Z,1013.18
2022-07-27T03:59:34.067Z,1013.22
2022-07-27T04:00:34.043Z,1013.22
2022-07-27T04:01:34.146Z,1013.20
2022-07-27T04:02:34.077Z,1013.25
2022-07-27T04:03:34.037Z,1013.26
2022-07-27T04:04:34.007Z,1013.24
2022-07-27T04:05:33.989Z,1013.26
2022-07-27T04:06:33.982Z,1013.25
2022-07-27T04:07:33.975Z,1013.22
2022-07-27T04:08:33.953Z,1013.20
2022-07-27T04:09:33.956Z,1013.24
2022-07-27T04:10:33.928Z,1013.25
2022-07-27T04:11:33.922Z,1013.29
2022-07-27T04:12:33.906Z,1013.26
2022-07-27T04:13:33.901Z,1013.29
2022-07-27T04:14:33.909Z,1013.31
2022-07-27T04:15:33.873Z,1013.33
2022-07-27T04:16:36.234Z,1013.32
2022-07-27T04:17:53.247Z,1013.34
2022-07-27T04:18:34.845Z,1013.33
2022-07-27T04:19:33.851Z,1013.27
2022-07-27T04:20:33.839Z,1013.31
2022-07-27T04:21:33.985Z,1013.29
2022-07-27T04:22:33.801Z,1013.29
2022-07-27T04:23:38.186Z,1013.28
2022-07-27T04:24:33.789Z,1013.30
2022-07-27T04:25:33.758Z,1013.26
2022-07-27T04:26:33.751Z,1013.27
2022-07-27T04:27:33.743Z,1013.28
2022-07-27T04:28:33.725Z,1013.26
2022-07-27T04:29:33.715Z,1013.26
2022-07-27T04:30:33.763Z,1013.24
2022-07-27T04:31:33.699Z,1013.25
2022-07-27T04:32:33.678Z,1013.23
2022-07-27T04:33:33.679Z,1013.24
2022-07-27T04:34:33.667Z,1013.23
2022-07-27T04:35:33.672Z,1013.22
2022-07-27T04:36:33.642Z,1013.22
2022-07-27T04:37:33.631Z,1013.23
2022-07-27T04:38:33.608Z,1013.24
2022-07-27T04:39:33.602Z,1013.25
2022-07-27T04:40:33.619Z,1013.25
2022-07-27T04:41:33.575Z,1013.26
2022-07-27T04:42:33.573Z,1013.30
2022-07-27T04:43:33.552Z,1013.34
2022-07-27T04:44:33.543Z,1013.32
2022-07-27T04:45:33.622Z,1013.36
2022-07-27T04:46:33.581Z,1013.34
2022-07-27T04:47:33.510Z,1013.39
2022-07-27T04:48:33.549Z,1013.37
2022-07-27T04:49:33.495Z,1013.41
2022-07-27T04:50:33.478Z,1013.37
2022-07-27T04:51:34.813Z,1013.42
2022-07-27T04:52:33.459Z,1013.41
2022-07-27T04:53:33.442Z,1013.41
2022-07-27T04:54:33.446Z,1013.37
2022-07-27T04:55:33.427Z,1013.40
2022-07-27T04:56:33.418Z,1013.39
2022-07-27T04:57:33.394Z,1013.37
2022-07-27T04:58:33.383Z,1013.36
2022-07-27T04:59:33.388Z,1013.34
2022-07-27T05:00:33.364Z,1013.36
2022-07-27T05:01:35.436Z,1013.39
2022-07-27T05:02:33.335Z,1013.42
2022-07-27T05:03:33.325Z,1013.41
2022-07-27T05:04:33.419Z,1013.43
2022-07-27T05:05:33.314Z,1013.45
2022-07-27T05:06:33.319Z,1013.47
2022-07-27T05:07:33.323Z,1013.47
2022-07-27T05:08:33.275Z,1013.49
2022-07-27T05:09:33.258Z,1013.51
2022-07-27T05:10:33.248Z,1013.50
2022-07-27T05:11:33.234Z,1013.51
2022-07-27T05:12:33.247Z,1013.51
2022-07-27T05:13:33.212Z,1013.58
2022-07-27T05:14:33.206Z,1013.54
2022-07-27T05:15:54.260Z,1013.59
2022-07-27T05:16:34.193Z,1013.56
2022-07-27T05:17:33.197Z,1013.58
2022-07-27T05:18:33.162Z,1013.61
2022-07-27T05:19:40.622Z,1013.55
2022-07-27T05:20:34.142Z,1013.55
2022-07-27T05:21:33.122Z,1013.55
2022-07-27T05:22:37.540Z,1013.56
2022-07-27T05:23:34.113Z,1013.55
2022-07-27T05:24:33.091Z,1013.59
2022-07-27T05:25:33.085Z,1013.61
2022-07-27T05:26:33.065Z,1013.61
2022-07-27T05:27:33.054Z,1013.58
2022-07-27T05:28:33.045Z,1013.60
2022-07-27T05:29:33.052Z,1013.57
2022-07-27T05:30:33.024Z,1013.62
2022-07-27T05:31:33.074Z,1013.60
2022-07-27T05:32:32.994Z,1013.63
2022-07-27T05:33:32.985Z,1013.62
2022-07-27T05:34:32.996Z,1013.66
2022-07-27T05:35:32.967Z,1013.67
2022-07-27T05:36:32.948Z,1013.69
2022-07-27T05:37:32.938Z,1013.67
2022-07-27T05:38:32.927Z,1013.69
2022-07-27T05:39:32.931Z,1013.71
2022-07-27T05:40:32.903Z,1013.73
2022-07-27T05:41:32.902Z,1013.74
2022-07-27T05:42:32.886Z,1013.75
2022-07-27T05:43:32.879Z,1013.74
2022-07-27T05:44:32.881Z,1013.80
2022-07-27T05:45:32.881Z,1013.79
2022-07-27T05:46:32.918Z,1013.81
2022-07-27T05:47:32.837Z,1013.85
2022-07-27T05:48:32.871Z,1013.87
2022-07-27T05:49:32.811Z,1013.93
2022-07-27T05:50:32.808Z,1013.95
2022-07-27T05:51:32.787Z,1013.93
2022-07-27T05:52:32.776Z,1013.94
2022-07-27T05:53:32.764Z,1013.92
2022-07-27T05:54:32.746Z,1013.92
2022-07-27T05:55:32.751Z,1013.94
2022-07-27T05:56:32.738Z,1013.93
2022-07-27T05:57:32.728Z,1013.93
2022-07-27T05:58:32.706Z,1013.97
2022-07-27T05:59:32.697Z,1013.94
2022-07-27T06:00:32.685Z,1013.95
2022-07-27T06:01:32.806Z,1013.97
2022-07-27T06:02:32.653Z,1014.00
2022-07-27T06:03:32.785Z,1013.88
2022-07-27T06:04:32.638Z,1013.91
2022-07-27T06:05:32.621Z,1013.96
2022-07-27T06:06:32.623Z,1013.95
2022-07-27T06:07:32.608Z,1013.97
2022-07-27T06:08:32.593Z,1014.01
2022-07-27T06:09:32.577Z,1014.02
2022-07-27T06:10:32.752Z,1014.03
2022-07-27T06:11:32.576Z,1014.03
2022-07-27T06:12:32.554Z,1014.02
2022-07-27T06:13:32.528Z,1014.02
2022-07-27T06:14:32.523Z,1014.04
2022-07-27T06:15:32.515Z,1014.09
2022-07-27T06:16:32.554Z,1014.07
2022-07-27T06:17:32.487Z,1014.02
2022-07-27T06:18:32.479Z,1014.03
2022-07-27T06:19:36.532Z,1013.99
2022-07-27T06:20:33.450Z,1014.01
2022-07-27T06:21:32.456Z,1014.01
2022-07-27T06:22:32.429Z,1014.05
2022-07-27T06:23:32.431Z,1013.99
2022-07-27T06:24:32.414Z,1013.99
2022-07-27T06:25:34.131Z,1013.99
2022-07-27T06:26:32.397Z,1014.04
2022-07-27T06:27:37.476Z,1014.04
2022-07-27T06:28:33.360Z,1014.09
2022-07-27T06:29:32.358Z,1014.05
2022-07-27T06:30:32.337Z,1014.04
2022-07-27T06:31:35.557Z,1014.04
2022-07-27T06:32:32.332Z,1014.07
2022-07-27T06:33:32.305Z,1014.10
2022-07-27T06:34:32.293Z,1014.06
2022-07-27T06:35:32.295Z,1014.08
2022-07-27T06:36:32.275Z,1014.12
2022-07-27T06:37:32.267Z,1014.09
2022-07-27T06:38:32.272Z,1014.06
2022-07-27T06:39:32.242Z,1014.09
2022-07-27T06:40:32.242Z,1014.15
2022-07-27T06:41:32.224Z,1014.14
2022-07-27T06:42:32.210Z,1014.12
2022-07-27T06:43:32.216Z,1014.14
2022-07-27T06:44:32.188Z,1014.15
2022-07-27T06:45:32.173Z,1014.12
2022-07-27T06:46:32.209Z,1014.14
2022-07-27T06:47:32.153Z,1014.13
2022-07-27T06:48:32.189Z,1014.14
2022-07-27T06:49:32.125Z,1014.15
2022-07-27T06:50:32.138Z,1014.15
2022-07-27T06:51:32.111Z,1014.19
2022-07-27T06:52:32.094Z,1014.19
2022-07-27T06:53:36.441Z,1014.15
2022-07-27T06:54:33.093Z,1014.17
2022-07-27T06:55:32.058Z,1014.16
2022-07-27T06:56:32.050Z,1014.18
2022-07-27T06:57:32.035Z,1014.25
2022-07-27T06:58:32.033Z,1014.20
2022-07-27T06:59:43.428Z,1014.20
2022-07-27T07:00:33.088Z,1014.22
2022-07-27T07:01:32.072Z,1014.28
2022-07-27T07:02:31.985Z,1014.23
2022-07-27T07:03:32.046Z,1014.18
2022-07-27T07:04:31.955Z,1014.15
2022-07-27T07:05:31.964Z,1014.11
2022-07-27T07:06:31.934Z,1014.10
2022-07-27T07:07:31.932Z,1014.10
2022-07-27T07:08:31.918Z,1014.15
2022-07-27T07:09:31.909Z,1014.13
2022-07-27T07:10:31.915Z,1014.15
2022-07-27T07:11:31.879Z,1014.06
2022-07-27T07:12:31.874Z,1014.10
2022-07-27T07:13:36.557Z,1014.06
2022-07-27T07:14:32.850Z,1014.09
2022-07-27T07:15:31.845Z,1014.11
2022-07-27T07:16:31.926Z,1014.09
2022-07-27T07:17:31.819Z,1014.06
2022-07-27T07:18:31.815Z,1014.06
2022-07-27T07:19:31.794Z,1014.08
2022-07-27T07:20:31.785Z,1014.15
2022-07-27T07:21:31.785Z,1014.13
2022-07-27T07:22:31.764Z,1014.10
2022-07-27T07:23:31.746Z,1014.15
2022-07-27T07:24:31.736Z,1014.08
2022-07-27T07:25:31.733Z,1014.09
2022-07-27T07:26:31.732Z,1014.07
2022-07-27T07:27:31.708Z,1014.13
2022-07-27T07:28:31.697Z,1014.14
2022-07-27T07:29:31.688Z,1014.14
2022-07-27T07:30:31.675Z,1014.13
2022-07-27T07:31:31.794Z,1014.09
2022-07-27T07:32:33.737Z,1014.10
2022-07-27T07:33:31.661Z,1014.12
2022-07-27T07:34:31.627Z,1014.09
2022-07-27T07:35:31.622Z,1014.08
2022-07-27T07:36:31.612Z,1014.07
2022-07-27T07:37:33.847Z,1014.13
2022-07-27T07:38:31.592Z,1014.10
2022-07-27T07:39:31.784Z,1014.08
2022-07-27T07:40:43.347Z,1014.09
2022-07-27T07:41:32.548Z,1014.15
2022-07-27T07:42:31.573Z,1014.12
2022-07-27T07:43:31.554Z,1014.12
2022-07-27T07:44:31.575Z,1014.03
2022-07-27T07:45:31.533Z,1014.06
2022-07-27T07:46:31.581Z,1014.03
2022-07-27T07:47:31.485Z,1014.09
2022-07-27T07:48:31.539Z,1014.09
2022-07-27T07:49:38.087Z,1014.08
2022-07-27T07:50:32.457Z,1014.09
2022-07-27T07:51:31.443Z,1014.07
2022-07-27T07:52:31.438Z,1014.09
2022-07-27T07:53:31.432Z,1014.15
2022-07-27T07:54:31.409Z,1014.13
2022-07-27T07:55:31.395Z,1014.09
2022-07-27T07:56:31.389Z,1014.06
2022-07-27T07:57:31.379Z,1014.10
2022-07-27T07:58:31.377Z,1014.08
2022-07-27T07:59:31.358Z,1014.13
2022-07-27T08:00:31.342Z,1014.09
2022-07-27T08:01:31.374Z,1014.11
2022-07-27T08:02:31.373Z,1014.07
2022-07-27T08:03:31.441Z,1014.08
2022-07-27T08:04:31.302Z,1014.11
2022-07-27T08:05:31.291Z,1014.20
2022-07-27T08:06:31.278Z,1014.18
2022-07-27T08:07:31.263Z,1014.19
2022-07-27T08:08:31.294Z,1014.14
2022-07-27T08:09:31.242Z,1014.17
2022-07-27T08:10:31.236Z,1014.09
2022-07-27T08:11:31.224Z,1014.13
2022-07-27T08:12:31.218Z,1014.12
2022-07-27T08:13:31.210Z,1014.10
2022-07-27T08:14:31.208Z,1014.16
2022-07-27T08:15:35.865Z,1014.15
2022-07-27T08:16:31.267Z,1014.19
2022-07-27T08:17:31.152Z,1014.17
2022-07-27T08:18:31.145Z,1014.16
2022-07-27T08:19:31.130Z,1014.15
2022-07-27T08:20:31.135Z,1014.11
2022-07-27T08:21:35.555Z,1014.15
2022-07-27T08:22:31.101Z,1014.19
2022-07-27T08:23:31.085Z,1014.20
2022-07-27T08:24:31.092Z,1014.20
2022-07-27T08:25:31.074Z,1014.21
2022-07-27T08:26:31.062Z,1014.25
2022-07-27T08:27:31.047Z,1014.25
2022-07-27T08:28:36.842Z,1014.24
2022-07-27T08:29:34.179Z,1014.43
2022-07-27T08:30:32.411Z,1014.24
2022-07-27T08:31:52.660Z,1014.25
2022-07-27T08:32:32.052Z,1014.26
2022-07-27T08:33:30.975Z,1014.28
2022-07-27T08:34:31.004Z,1014.22
2022-07-27T08:35:30.975Z,1014.24
2022-07-27T08:36:30.949Z,1014.22
2022-07-27T08:37:30.934Z,1014.22
2022-07-27T08:38:30.933Z,1014.25
2022-07-27T08:40:35.360Z,1014.20
2022-07-27T08:40:41.863Z,1014.23
2022-07-27T08:41:31.890Z,1014.17
2022-07-27T08:42:30.885Z,1014.16
2022-07-27T08:43:30.863Z,1014.16
2022-07-27T08:44:30.864Z,1014.15
2022-07-27T08:45:30.850Z,1014.23
2022-07-27T08:46:30.922Z,1014.22
2022-07-27T08:47:30.821Z,1014.22
2022-07-27T08:48:31.077Z,1014.27
2022-07-27T08:49:42.367Z,1014.20
2022-07-27T08:50:31.786Z,1014.20
2022-07-27T08:51:30.809Z,1014.22
2022-07-27T08:52:30.774Z,1014.25
2022-07-27T08:53:52.727Z,1014.24
2022-07-27T08:54:31.752Z,1014.24
2022-07-27T08:55:30.735Z,1014.19
2022-07-27T08:56:30.759Z,1014.23
2022-07-27T08:57:30.728Z,1014.26
2022-07-27T08:58:30.712Z,1014.23
2022-07-27T08:59:30.696Z,1014.24
2022-07-27T09:00:30.688Z,1014.27
2022-07-27T09:01:30.764Z,1014.25
2022-07-27T09:02:30.859Z,1014.33
2022-07-27T09:03:30.706Z,1014.22
2022-07-27T09:04:30.632Z,1014.16
2022-07-27T09:05:37.052Z,1014.21
2022-07-27T09:06:31.623Z,1014.20
2022-07-27T09:07:31.289Z,1014.17
2022-07-27T09:08:31.292Z,1014.14
2022-07-27T09:09:30.582Z,1014.24
2022-07-27T09:10:30.579Z,1014.18
2022-07-27T09:11:30.554Z,1014.20
2022-07-27T09:12:30.545Z,1014.17
2022-07-27T09:13:30.575Z,1014.24
2022-07-27T09:14:30.520Z,1014.21
2022-07-27T09:15:34.510Z,1014.20
2022-07-27T09:17:03.144Z,1014.19
2022-07-27T09:17:49.132Z,1014.18
2022-07-27T09:18:31.602Z,1014.21
2022-07-27T09:19:30.472Z,1014.20
2022-07-27T09:20:30.457Z,1014.22
2022-07-27T09:21:30.447Z,1014.55
2022-07-27T09:22:30.439Z,1014.55
2022-07-27T09:23:30.438Z,1014.58
2022-07-27T09:24:46.197Z,1014.59
2022-07-27T09:26:02.981Z,1014.66
2022-07-27T09:26:33.769Z,1014.64
2022-07-27T09:27:30.386Z,1014.71
2022-07-27T09:28:30.371Z,1014.68
2022-07-27T09:29:30.382Z,1014.71
2022-07-27T09:30:30.355Z,1014.69
2022-07-27T09:31:30.446Z,1014.60
2022-07-27T09:32:30.331Z,1014.62
2022-07-27T09:33:31.068Z,1014.56
2022-07-27T09:34:30.325Z,1014.60
2022-07-27T09:35:30.289Z,1014.71
2022-07-27T09:36:30.289Z,1014.74
2022-07-27T09:37:30.271Z,1014.38
2022-07-27T09:38:30.272Z,1014.31
2022-07-27T09:39:30.262Z,1014.28
2022-07-27T09:40:30.240Z,1014.23
2022-07-27T09:41:30.230Z,1014.29
2022-07-27T09:44:28.454Z,1014.24
2022-07-27T09:44:32.777Z,1014.15
2022-07-27T09:45:33.960Z,1014.16
2022-07-27T09:46:30.326Z,1014.22
2022-07-27T09:47:30.177Z,1014.17
2022-07-27T09:48:30.172Z,1014.20
2022-07-27T09:49:30.148Z,1014.12
2022-07-27T09:50:35.500Z,1014.20
2022-07-27T09:51:58.770Z,1014.23
2022-07-27T09:52:31.111Z,1014.22
2022-07-27T09:53:42.932Z,1014.23
2022-07-27T09:54:31.093Z,1014.24
2022-07-27T09:55:30.087Z,1014.22
2022-07-27T09:56:30.087Z,1014.24
2022-07-27T09:57:30.054Z,1014.19
2022-07-27T09:58:30.044Z,1014.15
2022-07-27T09:59:30.038Z,1014.11
2022-07-27T10:00:30.033Z,1014.18
2022-07-27T10:01:30.079Z,1014.21
2022-07-27T10:02:30.119Z,1014.20
2022-07-27T10:03:30.007Z,1014.20
2022-07-27T10:04:30.059Z,1014.20
2022-07-27T10:05:29.977Z,1014.16
2022-07-27T10:06:35.763Z,1014.15
2022-07-27T10:07:30.977Z,1014.14
2022-07-27T10:08:29.942Z,1014.19
2022-07-27T10:09:29.921Z,1014.15
2022-07-27T10:10:29.924Z,1014.19
2022-07-27T10:11:29.901Z,1014.24
2022-07-27T10:12:29.891Z,1014.19
2022-07-27T10:13:29.907Z,1014.23
2022-07-27T10:14:29.871Z,1014.24
2022-07-27T10:15:29.917Z,1014.22
2022-07-27T10:16:29.954Z,1014.21
2022-07-27T10:17:29.836Z,1014.21
2022-07-27T10:18:29.837Z,1014.22
2022-07-27T10:19:29.828Z,1014.24
2022-07-27T10:20:29.813Z,1014.25
2022-07-27T10:21:29.800Z,1014.23
2022-07-27T10:22:29.780Z,1014.29
2022-07-27T10:23:29.785Z,1014.52
2022-07-27T10:24:29.768Z,1014.25
2022-07-27T10:25:32.297Z,1014.22
2022-07-27T10:26:30.743Z,1014.23
2022-07-27T10:27:29.733Z,1014.64
2022-07-27T10:28:29.716Z,1014.67
2022-07-27T10:29:29.709Z,1014.48
2022-07-27T10:30:29.701Z,1014.56
2022-07-27T10:31:29.822Z,1014.67
2022-07-27T10:32:29.672Z,1014.64
2022-07-27T10:33:29.659Z,1014.16
2022-07-27T10:34:29.661Z,1014.24
2022-07-27T10:35:29.648Z,1014.14
2022-07-27T10:36:29.636Z,1014.17
2022-07-27T10:37:29.638Z,1014.14
2022-07-27T10:38:29.607Z,1014.12
2022-07-27T10:39:29.602Z,1014.18
2022-07-27T10:40:29.594Z,1014.15
2022-07-27T10:41:29.583Z,1014.17
2022-07-27T10:42:29.570Z,1014.12
2022-07-27T10:43:29.579Z,1014.15
2022-07-27T10:44:29.549Z,1014.18
2022-07-27T10:45:29.536Z,1014.18
2022-07-27T10:46:30.585Z,1014.20
2022-07-27T10:47:29.507Z,1014.22
2022-07-27T10:48:29.500Z,1014.23
2022-07-27T10:49:29.614Z,1014.20
2022-07-27T10:50:29.477Z,1014.26
2022-07-27T10:51:29.471Z,1014.23
2022-07-27T10:52:29.465Z,1014.30
2022-07-27T10:53:29.447Z,1014.28
2022-07-27T10:54:30.228Z,1014.34
2022-07-27T10:55:29.421Z,1014.52
2022-07-27T10:56:29.412Z,1014.61
2022-07-27T10:57:29.399Z,1014.38
2022-07-27T10:58:29.397Z,1014.38
2022-07-27T10:59:44.974Z,1014.37
2022-07-27T11:00:30.395Z,1014.30
2022-07-27T11:01:29.438Z,1014.30
2022-07-27T11:02:29.354Z,1014.25
2022-07-27T11:03:29.342Z,1014.26
2022-07-27T11:04:29.379Z,1014.26
2022-07-27T11:06:34.637Z,1014.25
2022-07-27T11:07:43.738Z,1014.23
2022-07-27T11:08:46.610Z,1014.18
2022-07-27T11:10:03.005Z,1014.18
2022-07-27T11:10:30.267Z,1014.13
2022-07-27T11:15:28.812Z,1014.19
2022-07-27T11:16:22.942Z,1014.21
2022-07-27T11:17:39.876Z,1014.34
2022-07-27T11:18:04.317Z,1014.35
2022-07-27T11:18:59.685Z,1014.30
2022-07-27T11:19:59.656Z,1014.27
2022-07-27T11:20:59.702Z,1014.23
2022-07-27T11:22:04.278Z,1014.17
2022-07-27T11:23:48.680Z,1014.09
2022-07-27T11:24:00.547Z,1014.15
2022-07-27T11:24:59.534Z,1014.22
2022-07-27T11:25:59.541Z,1014.23
2022-07-27T11:26:59.512Z,1014.18
2022-07-27T11:27:59.509Z,1014.15
2022-07-27T11:28:59.496Z,1014.13
2022-07-27T11:29:59.487Z,1014.12
2022-07-27T11:30:59.539Z,1014.06
2022-07-27T11:31:59.638Z,1014.04
2022-07-27T11:32:59.456Z,1013.99
2022-07-27T11:33:59.438Z,1013.89
2022-07-27T11:34:59.435Z,1013.99
2022-07-27T11:35:59.440Z,1013.93
2022-07-27T11:36:59.413Z,1013.90
2022-07-27T11:37:59.403Z,1013.85
2022-07-27T11:38:59.382Z,1013.94
2022-07-27T11:40:03.301Z,1013.89
2022-07-27T11:41:15.162Z,1013.87
2022-07-27T11:42:11.591Z,1013.98
2022-07-27T11:43:00.340Z,1013.97
2022-07-27T11:43:59.339Z,1014.00
2022-07-27T11:44:59.322Z,1013.98
2022-07-27T11:45:59.364Z,1014.00
2022-07-27T11:47:02.037Z,1013.91
2022-07-27T11:47:59.287Z,1013.92
2022-07-27T11:49:07.843Z,1013.89
2022-07-27T11:50:00.414Z,1013.94
2022-07-27T11:50:59.280Z,1013.88
2022-07-27T11:51:59.266Z,1013.85
2022-07-27T11:53:01.793Z,1013.84
2022-07-27T11:53:59.222Z,1013.84
2022-07-27T11:54:59.211Z,1013.85
2022-07-27T11:55:59.207Z,1013.83
2022-07-27T11:56:59.204Z,1013.82
2022-07-27T11:57:59.192Z,1013.87
2022-07-27T11:59:01.412Z,1013.84
2022-07-27T11:59:59.169Z,1013.84
2022-07-27T12:00:59.145Z,1013.86
2022-07-27T12:01:59.322Z,1013.81
2022-07-27T12:02:59.127Z,1013.73
2022-07-27T12:03:59.140Z,1013.78
2022-07-27T12:05:03.069Z,1013.81
2022-07-27T12:05:59.091Z,1013.76
2022-07-27T12:06:59.132Z,1013.68
2022-07-27T12:07:59.067Z,1013.75
2022-07-27T12:08:59.060Z,1013.81
2022-07-27T12:09:59.058Z,1013.81
2022-07-27T12:10:59.042Z,1013.75
2022-07-27T12:11:59.039Z,1013.77
2022-07-27T12:12:59.015Z,1013.71
2022-07-27T12:13:59.021Z,1013.72
2022-07-27T12:14:58.990Z,1013.66
2022-07-27T12:15:58.993Z,1013.68